KLOM

Details ICAO KLOM (BBX)
Name Wings Field
Region United States
Timezone America/New_York (UTC-4.0)
Plans Departing 45
Arriving 20
Stats Elevation 301 ft / 92 m (AMSL)
Location 40.137600° -75.265100°
Runways 1
Magnetic Variation 12.084° W
Sunrise 2019-08-19 10:17:24 UTC / 2019-08-19 06:17:24 Local
Sunset 2019-08-19 23:55:00 UTC / 2019-08-19 19:55:00 Local
Advertisement - Login to hide

Runways

ID Width Length Bearing (true/mag) Surface Threshold Overrun Markings Lighting
06 75 ft / 23 m 3,704 ft / 1,129 m 53.00° / 65.08° ASPHALT 177 ft / 54 m 98 ft / 30 m APP CENTERLINE EDGE THRESHOLD
24 75 ft / 23 m 3,704 ft / 1,129 m 233.00° / 245.09° ASPHALT 0 ft / 0 m 0 ft / 0 m APP CENTERLINE EDGE THRESHOLD

Map

Weather


0- 5 10 15 20 25 30 35+ Temperature / °C

Clouds and Precipitation
Forecast for 2019-08-19 18:00 UTC. Updated 6 hours ago

Ground ~20,000 ft ~40,000 ft Winds

METAR

KLOM 192055Z AUTO 33003KT 10SM CLR 32/22 A2996 RMK AO2 T03200221

TAF

Not found

Frequencies

Recorded 118.93 MHz Wings Field AWOS
Approach 126.85 MHz Philadelphia Approach
Departure 126.85 MHz Philadelphia Departure
Unicom 123.00 MHz Wings Field Unicom
Warning: Do not use this data for real-world aviation or navigation. No guarantee of current accuracy is given.